Time;durP1;ratioP1;P1;durP2;ratioP2;P2;SDS_P1;SDS_P2;PMS_P1;PMS_P2;Temp;Humidity;BMP_temperature;BMP_pressure;BME280_temperature;BME280_humidity;BME280_pressure;Samples;Min_cycle;Max_cycle;Signal;HPM_P1;HPM_P2
2021/11/02 00:00:55;;;;;;;;;;;10.80;99.90;;;;;;5054563;28;19897;-92
2021/11/02 00:03:21;;;;;;;;;;;10.90;99.90;;;;;;5067009;28;20004;-91
2021/11/02 00:05:46;;;;;;;;;;;11.00;99.90;;;;;;5076693;28;19949;-91
2021/11/02 00:08:12;;;;;;;;;;;11.00;99.90;;;;;;5082074;28;19933;-92
2021/11/02 00:10:37;;;;;;;;;;;11.10;99.90;;;;;;5055115;28;19917;-94
2021/11/02 00:13:03;;;;;;;;;;;11.20;99.90;;;;;;5080601;28;19961;-91
2021/11/02 00:15:31;;;;;;;;;;;11.20;99.90;;;;;;5053413;28;19928;-91
2021/11/02 00:18:00;;;;;;;;;;;11.20;99.90;;;;;;5064073;28;19913;-90
2021/11/02 00:20:26;;;;;;;;;;;11.20;99.90;;;;;;5041336;28;19916;-89
2021/11/02 00:22:56;;;;;;;;;;;11.10;99.90;;;;;;5068504;28;20118;-89
2021/11/02 00:25:23;;;;;;;;;;;11.10;99.90;;;;;;5036465;28;19912;-90
2021/11/02 00:27:49;;;;;;;;;;;11.10;99.90;;;;;;5051004;28;19944;-90
2021/11/02 00:30:15;;;;;;;;;;;11.20;99.90;;;;;;5057337;28;19952;-89
2021/11/02 00:32:42;;;;;;;;;;;11.20;99.90;;;;;;5059100;28;19920;-89
2021/11/02 00:35:08;;;;;;;;;;;11.20;99.90;;;;;;5052219;28;19908;-88
2021/11/02 00:37:33;;;;;;;;;;;11.20;99.90;;;;;;5044821;28;19916;-88
2021/11/02 00:40:00;;;;;;;;;;;11.30;99.90;;;;;;5053812;28;19971;-88
2021/11/02 00:42:33;;;;;;;;;;;11.30;99.90;;;;;;5052962;28;19917;-88
2021/11/02 00:45:02;;;;;;;;;;;11.30;99.90;;;;;;5050850;28;19909;-87
2021/11/02 00:47:28;;;;;;;;;;;11.40;99.90;;;;;;5050972;28;19908;-87
2021/11/02 00:49:54;;;;;;;;;;;11.40;99.90;;;;;;5050907;28;19913;-87
2021/11/02 00:52:19;;;;;;;;;;;11.50;99.90;;;;;;5049785;28;19909;-86
2021/11/02 00:54:45;;;;;;;;;;;11.50;99.90;;;;;;5050034;28;19915;-86
2021/11/02 00:57:11;;;;;;;;;;;11.40;99.90;;;;;;5033577;28;20416;-86
2021/11/02 00:59:36;;;;;;;;;;;11.30;99.90;;;;;;5050525;28;19915;-86
2021/11/02 01:02:05;;;;;;;;;;;11.30;99.90;;;;;;5047821;28;19921;-86
2021/11/02 01:04:31;;;;;;;;;;;11.20;99.90;;;;;;5031446;28;20324;-85
2021/11/02 01:06:56;;;;;;;;;;;11.30;99.90;;;;;;5051809;28;19959;-85
2021/11/02 01:09:22;;;;;;;;;;;11.30;99.90;;;;;;5050317;28;19908;-85
2021/11/02 01:11:47;;;;;;;;;;;11.20;99.90;;;;;;5050433;28;19909;-85
2021/11/02 01:14:13;;;;;;;;;;;11.20;99.90;;;;;;5048769;28;19913;-85
2021/11/02 01:16:38;;;;;;;;;;;11.20;99.90;;;;;;5049941;28;21068;-85
2021/11/02 01:19:04;;;;;;;;;;;11.20;99.90;;;;;;5056405;28;20393;-84
2021/11/02 01:21:30;;;;;;;;;;;11.30;99.90;;;;;;5050786;28;20365;-84
2021/11/02 01:23:56;;;;;;;;;;;11.30;99.90;;;;;;5051407;28;19916;-84
2021/11/02 01:26:22;;;;;;;;;;;11.30;99.90;;;;;;5058584;28;19909;-85
2021/11/02 01:28:48;;;;;;;;;;;11.30;99.90;;;;;;5051555;28;19916;-84
2021/11/02 01:31:14;;;;;;;;;;;11.40;99.90;;;;;;5050742;28;20277;-85
2021/11/02 01:33:40;;;;;;;;;;;11.30;99.90;;;;;;5051686;28;19913;-84
2021/11/02 01:36:06;;;;;;;;;;;11.30;99.90;;;;;;5051490;28;19999;-85
2021/11/02 01:38:31;;;;;;;;;;;11.30;99.90;;;;;;5051912;28;20330;-84
2021/11/02 01:40:58;;;;;;;;;;;11.40;99.90;;;;;;5050651;28;20549;-84
2021/11/02 01:43:23;;;;;;;;;;;11.40;99.90;;;;;;5051551;28;20004;-85
2021/11/02 01:45:49;;;;;;;;;;;11.30;99.90;;;;;;5051312;28;19955;-84
2021/11/02 01:48:22;;;;;;;;;;;11.30;99.90;;;;;;5061698;28;19912;-84
2021/11/02 01:50:48;;;;;;;;;;;11.40;99.90;;;;;;5049940;28;19909;-82
2021/11/02 01:53:14;;;;;;;;;;;11.40;99.90;;;;;;5063718;28;20000;-84
2021/11/02 01:55:40;;;;;;;;;;;11.40;99.90;;;;;;5052318;28;19952;-84
2021/11/02 01:58:07;;;;;;;;;;;11.40;99.90;;;;;;5058015;28;20239;-84
2021/11/02 02:00:34;;;;;;;;;;;11.40;99.90;;;;;;5051244;28;20365;-84
2021/11/02 02:03:11;;;;;;;;;;;11.40;99.90;;;;;;5051087;28;19921;-84
2021/11/02 02:05:45;;;;;;;;;;;11.40;99.90;;;;;;5048849;28;19915;-84
2021/11/02 02:08:19;;;;;;;;;;;11.40;99.90;;;;;;5050064;28;19917;-84
2021/11/02 02:10:48;;;;;;;;;;;11.40;99.90;;;;;;5051109;28;19923;-84
2021/11/02 02:13:14;;;;;;;;;;;11.50;99.90;;;;;;5050683;28;19913;-84
2021/11/02 02:15:50;;;;;;;;;;;11.50;99.90;;;;;;5032204;28;20381;-83
2021/11/02 02:18:18;;;;;;;;;;;11.50;99.90;;;;;;5049554;28;20018;-83
2021/11/02 02:21:02;;;;;;;;;;;11.50;99.90;;;;;;5049129;28;20297;-83
2021/11/02 02:23:46;;;;;;;;;;;11.50;99.90;;;;;;5049521;28;19917;-83
2021/11/02 02:26:30;;;;;;;;;;;11.50;99.90;;;;;;5046910;28;19919;-83
2021/11/02 02:28:59;;;;;;;;;;;11.50;99.90;;;;;;5048643;28;19909;-83
2021/11/02 02:31:29;;;;;;;;;;;11.50;99.90;;;;;;5045730;28;20041;-83
2021/11/02 02:33:55;;;;;;;;;;;11.50;99.90;;;;;;5048512;28;19919;-83
2021/11/02 02:36:21;;;;;;;;;;;11.60;99.90;;;;;;5049804;28;19909;-83
2021/11/02 02:38:48;;;;;;;;;;;11.60;99.90;;;;;;5047775;28;19916;-83
2021/11/02 02:41:14;;;;;;;;;;;11.70;99.90;;;;;;5046931;28;19982;-83
2021/11/02 02:43:41;;;;;;;;;;;11.70;99.90;;;;;;5049543;28;19915;-83
2021/11/02 02:46:08;;;;;;;;;;;11.70;99.90;;;;;;5047842;28;19954;-83
2021/11/02 02:48:34;;;;;;;;;;;11.80;99.90;;;;;;5049629;28;19909;-84
2021/11/02 02:51:02;;;;;;;;;;;11.80;99.90;;;;;;5048640;28;20403;-85
2021/11/02 02:53:28;;;;;;;;;;;11.70;99.90;;;;;;5049439;28;20415;-85
2021/11/02 02:55:58;;;;;;;;;;;11.50;99.90;;;;;;5031448;28;19991;-85
2021/11/02 02:58:24;;;;;;;;;;;11.50;99.90;;;;;;5049496;28;19909;-84
2021/11/02 03:00:49;;;;;;;;;;;11.40;99.90;;;;;;5048957;28;20377;-84
2021/11/02 03:03:16;;;;;;;;;;;11.30;99.90;;;;;;5049411;28;20435;-84
2021/11/02 03:05:41;;;;;;;;;;;11.30;99.90;;;;;;5031501;28;19916;-84
2021/11/02 03:08:08;;;;;;;;;;;11.20;99.90;;;;;;5049499;28;19909;-84
2021/11/02 03:10:34;;;;;;;;;;;11.20;99.90;;;;;;5049560;28;19996;-84
2021/11/02 03:13:02;;;;;;;;;;;11.20;99.90;;;;;;5049359;28;19909;-84
2021/11/02 03:15:48;;;;;;;;;;;11.20;99.90;;;;;;5049547;28;20007;-84
2021/11/02 03:51:01;;;;;;;;;;;11.30;99.90;;;;;;5047511;28;19954;-89
2021/11/02 03:59:07;;;;;;;;;;;11.10;99.90;;;;;;5049178;28;20319;-91
2021/11/02 04:23:56;;;;;;;;;;;10.70;99.90;;;;;;5049304;28;19971;-87
2021/11/02 05:56:48;;;;;;;;;;;11.40;99.90;;;;;;5043491;28;19954;-85
2021/11/02 05:59:30;;;;;;;;;;;11.40;99.90;;;;;;5043725;28;20011;-85
2021/11/02 06:07:24;;;;;;;;;;;11.30;99.90;;;;;;5045313;28;19926;-85
2021/11/02 06:09:56;;;;;;;;;;;11.30;99.90;;;;;;5046247;28;19909;-89
2021/11/02 06:29:10;;;;;;;;;;;11.30;99.90;;;;;;5053673;28;19915;-91
2021/11/02 06:31:38;;;;;;;;;;;11.30;99.90;;;;;;5052261;28;19909;-90
2021/11/02 06:34:23;;;;;;;;;;;11.20;99.90;;;;;;5032907;28;20163;-92
2021/11/02 06:51:09;;;;;;;;;;;11.00;99.90;;;;;;5050246;28;19992;-89
2021/11/02 07:15:12;;;;;;;;;;;11.20;99.90;;;;;;5049710;28;20006;-90
2021/11/02 07:16:41;;;;;;;;;;;11.30;99.90;;;;;;5049024;28;20361;-89
2021/11/02 07:19:20;;;;;;;;;;;11.30;99.90;;;;;;5049086;28;19909;-89
2021/11/02 07:24:47;;;;;;;;;;;11.40;99.90;;;;;;5047267;28;20459;-89
2021/11/02 07:27:49;;;;;;;;;;;11.50;99.90;;;;;;5046960;28;19908;-89
2021/11/02 08:48:02;;;;;;;;;;;13.40;99.90;;;;;;5045323;28;19909;-93
2021/11/02 08:50:40;;;;;;;;;;;13.40;99.90;;;;;;5044656;28;19913;-92
2021/11/02 08:53:06;;;;;;;;;;;13.40;99.90;;;;;;5046839;28;20412;-92
2021/11/02 08:55:33;;;;;;;;;;;13.40;99.90;;;;;;5059256;28;19952;-91
2021/11/02 08:57:59;;;;;;;;;;;13.40;99.90;;;;;;5058819;28;19944;-95
2021/11/02 09:00:24;;;;;;;;;;;13.50;99.90;;;;;;5044915;28;20357;-92
2021/11/02 09:02:53;;;;;;;;;;;13.60;99.90;;;;;;5031910;28;19917;-92
2021/11/02 09:05:20;;;;;;;;;;;13.70;99.90;;;;;;5032581;28;19958;-91
2021/11/02 09:07:46;;;;;;;;;;;13.80;99.90;;;;;;5055060;28;19919;-91
2021/11/02 09:10:21;;;;;;;;;;;13.80;99.90;;;;;;5058265;28;19917;-93
2021/11/02 09:12:49;;;;;;;;;;;13.80;99.90;;;;;;5057179;28;20103;-92
2021/11/02 09:15:15;;;;;;;;;;;13.90;99.90;;;;;;5046375;28;19913;-94
2021/11/02 09:17:47;;;;;;;;;;;13.90;99.90;;;;;;5057072;28;19948;-92
2021/11/02 09:20:14;;;;;;;;;;;14.00;99.90;;;;;;5058617;28;19924;-91
2021/11/02 09:22:41;;;;;;;;;;;13.90;99.90;;;;;;5056533;28;19920;-92
2021/11/02 09:25:07;;;;;;;;;;;13.80;99.90;;;;;;5056152;28;19994;-91
2021/11/02 09:27:34;;;;;;;;;;;13.80;99.90;;;;;;5036555;28;19928;-92
2021/11/02 09:30:01;;;;;;;;;;;13.80;99.90;;;;;;5029901;28;20016;-92
2021/11/02 09:32:26;;;;;;;;;;;13.70;99.90;;;;;;5057346;28;19962;-91
2021/11/02 09:34:53;;;;;;;;;;;13.70;99.90;;;;;;5044107;28;20045;-91
2021/11/02 09:37:23;;;;;;;;;;;13.70;99.90;;;;;;5033548;28;19909;-92
2021/11/02 09:39:49;;;;;;;;;;;13.70;99.90;;;;;;5032090;28;19921;-91
2021/11/02 09:42:15;;;;;;;;;;;13.70;99.90;;;;;;5049532;28;19963;-91
2021/11/02 09:44:42;;;;;;;;;;;13.60;99.90;;;;;;5043218;28;20395;-91
2021/11/02 09:47:33;;;;;;;;;;;13.30;99.90;;;;;;5046085;28;19905;-90
2021/11/02 09:50:08;;;;;;;;;;;13.10;99.90;;;;;;5042451;28;20270;-92
2021/11/02 09:52:39;;;;;;;;;;;12.90;99.90;;;;;;5047081;28;20300;-91
2021/11/02 09:55:11;;;;;;;;;;;12.70;99.90;;;;;;5044684;28;19963;-91
2021/11/02 09:57:36;;;;;;;;;;;12.60;99.90;;;;;;5057504;28;19909;-91
2021/11/02 10:00:02;;;;;;;;;;;12.70;99.90;;;;;;5029291;28;20389;-91
2021/11/02 10:02:39;;;;;;;;;;;12.70;99.90;;;;;;5044776;28;19917;-92
2021/11/02 10:05:07;;;;;;;;;;;12.80;99.90;;;;;;5055683;28;19908;-91
2021/11/02 10:07:34;;;;;;;;;;;12.90;99.90;;;;;;5042623;28;19917;-91
2021/11/02 10:10:07;;;;;;;;;;;12.90;99.90;;;;;;5032066;28;19909;-91
2021/11/02 10:12:36;;;;;;;;;;;12.90;99.90;;;;;;5061210;28;20361;-91
2021/11/02 10:15:03;;;;;;;;;;;12.90;99.90;;;;;;5057715;28;19917;-91
2021/11/02 10:17:30;;;;;;;;;;;12.90;99.90;;;;;;5042873;28;19909;-91
2021/11/02 10:20:10;;;;;;;;;;;13.00;99.90;;;;;;5058344;28;20432;-91
2021/11/02 10:22:59;;;;;;;;;;;13.00;99.90;;;;;;5043049;28;20328;-91
2021/11/02 10:25:37;;;;;;;;;;;12.90;99.90;;;;;;5029431;28;19920;-90
2021/11/02 10:28:22;;;;;;;;;;;12.80;99.90;;;;;;5055270;28;19991;-92
2021/11/02 10:30:55;;;;;;;;;;;12.60;99.90;;;;;;5042649;28;19954;-91
2021/11/02 10:33:33;;;;;;;;;;;12.40;99.90;;;;;;5030978;28;19956;-91
2021/11/02 10:36:07;;;;;;;;;;;12.30;99.90;;;;;;5041037;28;19963;-94
2021/11/02 10:38:33;;;;;;;;;;;12.20;99.90;;;;;;5043871;28;19952;-90
2021/11/02 10:41:03;;;;;;;;;;;12.30;99.90;;;;;;5063850;28;20380;-89
2021/11/02 10:43:58;;;;;;;;;;;12.30;99.90;;;;;;5042458;28;19921;-89
2021/11/02 10:46:29;;;;;;;;;;;12.30;99.90;;;;;;5041037;28;19909;-89
2021/11/02 10:48:57;;;;;;;;;;;12.30;99.90;;;;;;5042963;28;19910;-89
2021/11/02 10:51:26;;;;;;;;;;;12.40;99.90;;;;;;5042186;28;19909;-89
2021/11/02 10:53:57;;;;;;;;;;;12.50;99.90;;;;;;5041633;28;19918;-89
2021/11/02 10:56:32;;;;;;;;;;;12.60;99.90;;;;;;5043992;28;19935;-89
2021/11/02 10:58:59;;;;;;;;;;;12.60;99.90;;;;;;5048181;28;19981;-88
2021/11/02 11:01:26;;;;;;;;;;;12.80;99.90;;;;;;5041611;28;19964;-88
2021/11/02 11:03:54;;;;;;;;;;;12.70;99.90;;;;;;5041084;28;19925;-88
2021/11/02 11:06:21;;;;;;;;;;;12.80;99.90;;;;;;5042929;28;20004;-87
2021/11/02 11:08:48;;;;;;;;;;;12.80;99.90;;;;;;5041981;28;20412;-88
2021/11/02 11:11:20;;;;;;;;;;;12.90;99.90;;;;;;5048389;28;19915;-87
2021/11/02 11:13:46;;;;;;;;;;;13.00;99.90;;;;;;5044520;28;19913;-87
2021/11/02 11:16:13;;;;;;;;;;;13.00;99.90;;;;;;5044651;28;19963;-87
2021/11/02 11:18:58;;;;;;;;;;;13.10;99.90;;;;;;5055894;28;20395;-87
2021/11/02 11:21:24;;;;;;;;;;;13.30;99.90;;;;;;5042522;28;19929;-87
2021/11/02 11:23:54;;;;;;;;;;;13.40;99.90;;;;;;5041130;28;19917;-87
2021/11/02 11:26:22;;;;;;;;;;;13.50;99.90;;;;;;5062726;28;19996;-87
2021/11/02 11:28:48;;;;;;;;;;;13.70;99.90;;;;;;5050447;28;19994;-87
2021/11/02 11:31:15;;;;;;;;;;;13.70;99.90;;;;;;5051686;28;19915;-87
2021/11/02 11:33:41;;;;;;;;;;;13.90;99.90;;;;;;5050134;28;19909;-87
2021/11/02 11:36:07;;;;;;;;;;;14.00;99.90;;;;;;5050354;28;19916;-87
2021/11/02 11:38:37;;;;;;;;;;;14.30;99.90;;;;;;5048397;28;19909;-87
2021/11/02 11:41:04;;;;;;;;;;;14.40;99.90;;;;;;5050105;28;20381;-89
2021/11/02 11:43:31;;;;;;;;;;;14.50;99.90;;;;;;5050062;28;19917;-90
2021/11/02 11:45:59;;;;;;;;;;;14.50;99.90;;;;;;5032187;28;19962;-89
2021/11/02 11:48:26;;;;;;;;;;;14.50;99.90;;;;;;5050272;28;19908;-93
2021/11/02 11:50:51;;;;;;;;;;;14.50;99.90;;;;;;5056425;28;19908;-89
2021/11/02 11:53:18;;;;;;;;;;;14.40;99.90;;;;;;5070273;28;19909;-89
2021/11/02 11:55:44;;;;;;;;;;;14.40;99.90;;;;;;5069901;28;19908;-89
2021/11/02 11:58:12;;;;;;;;;;;14.30;99.90;;;;;;5070165;28;19909;-90
2021/11/02 12:00:39;;;;;;;;;;;14.20;99.90;;;;;;5069871;28;19915;-90
2021/11/02 12:03:20;;;;;;;;;;;14.10;99.90;;;;;;5050548;28;19916;-90
2021/11/02 12:05:48;;;;;;;;;;;14.00;99.90;;;;;;5061989;28;20158;-90
2021/11/02 12:08:15;;;;;;;;;;;13.90;99.90;;;;;;5051900;28;19952;-90
2021/11/02 12:10:41;;;;;;;;;;;13.90;99.90;;;;;;5070152;28;19919;-90
2021/11/02 12:13:11;;;;;;;;;;;13.80;99.90;;;;;;5051846;28;19983;-92
2021/11/02 12:15:40;;;;;;;;;;;13.60;99.90;;;;;;5037274;28;19915;-90
2021/11/02 12:18:07;;;;;;;;;;;13.60;99.90;;;;;;5053952;28;20365;-90
2021/11/02 12:20:35;;;;;;;;;;;13.50;99.90;;;;;;5035926;28;19909;-90
2021/11/02 12:23:12;;;;;;;;;;;13.40;99.90;;;;;;5053762;28;19917;-90
2021/11/02 12:25:40;;;;;;;;;;;13.50;99.90;;;;;;5053855;28;19909;-89
2021/11/02 12:28:06;;;;;;;;;;;13.40;99.90;;;;;;5035776;28;20357;-90
2021/11/02 12:30:32;;;;;;;;;;;13.40;99.90;;;;;;5035765;28;19923;-90
2021/11/02 12:32:57;;;;;;;;;;;13.30;99.90;;;;;;5053657;28;19915;-90
2021/11/02 12:35:30;;;;;;;;;;;13.30;99.90;;;;;;5053764;28;19909;-89
2021/11/02 12:38:04;;;;;;;;;;;13.20;99.90;;;;;;5053369;28;19919;-89
2021/11/02 12:40:35;;;;;;;;;;;13.20;99.90;;;;;;5045452;28;19928;-89
2021/11/02 12:43:00;;;;;;;;;;;13.20;99.90;;;;;;5053371;28;19917;-89
2021/11/02 12:45:27;;;;;;;;;;;13.10;99.90;;;;;;5053364;28;19962;-89
2021/11/02 12:47:59;;;;;;;;;;;13.10;99.90;;;;;;5052909;28;19916;-89
2021/11/02 12:50:27;;;;;;;;;;;13.00;99.90;;;;;;5053354;28;20008;-89
2021/11/02 12:52:55;;;;;;;;;;;13.00;99.90;;;;;;5053425;28;19916;-90
2021/11/02 12:55:24;;;;;;;;;;;13.00;99.90;;;;;;5051678;28;19909;-91
2021/11/02 12:57:53;;;;;;;;;;;12.90;99.90;;;;;;5053176;28;19952;-90
2021/11/02 13:00:26;;;;;;;;;;;12.80;99.90;;;;;;5053365;28;20446;-90
2021/11/02 13:02:58;;;;;;;;;;;12.70;99.90;;;;;;5068294;28;19921;-89
2021/11/02 13:05:24;;;;;;;;;;;12.70;99.90;;;;;;5053257;28;19908;-90
2021/11/02 13:08:05;;;;;;;;;;;12.70;99.90;;;;;;5051727;28;19909;-89
2021/11/02 13:10:31;;;;;;;;;;;12.60;99.90;;;;;;5052971;28;19909;-91
2021/11/02 13:13:06;;;;;;;;;;;12.60;99.90;;;;;;5053150;28;20012;-90
2021/11/02 13:15:47;;;;;;;;;;;12.60;99.90;;;;;;5052799;28;20411;-92
2021/11/02 13:18:27;;;;;;;;;;;12.60;99.90;;;;;;5051672;28;19916;-91
2021/11/02 13:20:58;;;;;;;;;;;12.60;99.90;;;;;;5051663;28;20394;-91
2021/11/02 13:23:34;;;;;;;;;;;12.60;99.90;;;;;;5052545;28;20432;-91
2021/11/02 13:26:12;;;;;;;;;;;12.60;99.90;;;;;;5052341;28;19908;-91
2021/11/02 13:28:38;;;;;;;;;;;12.70;99.90;;;;;;5051324;28;19908;-92
2021/11/02 13:31:04;;;;;;;;;;;12.60;99.90;;;;;;5051588;28;19916;-93
2021/11/02 13:33:31;;;;;;;;;;;12.70;99.90;;;;;;5051493;28;19909;-93
2021/11/02 13:36:04;;;;;;;;;;;12.60;99.90;;;;;;5051643;28;19916;-91
2021/11/02 13:38:32;;;;;;;;;;;12.70;99.90;;;;;;5051840;28;20380;-92
2021/11/02 13:40:59;;;;;;;;;;;12.80;99.90;;;;;;5051432;28;19921;-92
2021/11/02 13:43:29;;;;;;;;;;;12.70;99.90;;;;;;5052627;28;20408;-92
2021/11/02 13:45:54;;;;;;;;;;;12.70;99.90;;;;;;5038896;28;20427;-91
2021/11/02 13:48:21;;;;;;;;;;;12.70;99.90;;;;;;5052685;28;19909;-91
2021/11/02 13:50:47;;;;;;;;;;;12.60;99.90;;;;;;5052665;28;19909;-93
2021/11/02 13:53:12;;;;;;;;;;;12.60;99.90;;;;;;5051252;28;20432;-91
2021/11/02 13:55:38;;;;;;;;;;;12.50;99.90;;;;;;5050858;28;20008;-92
2021/11/02 13:58:04;;;;;;;;;;;12.40;99.90;;;;;;5055828;28;19936;-91
2021/11/02 14:00:30;;;;;;;;;;;12.40;99.90;;;;;;5052350;28;20362;-91
2021/11/02 14:02:57;;;;;;;;;;;12.20;99.90;;;;;;5050595;28;19920;-90
2021/11/02 14:05:25;;;;;;;;;;;12.20;99.90;;;;;;5050827;28;19912;-90
2021/11/02 14:07:51;;;;;;;;;;;12.10;99.90;;;;;;5050266;28;19954;-91
2021/11/02 14:10:16;;;;;;;;;;;12.10;99.90;;;;;;5056422;28;19912;-93
2021/11/02 14:12:52;;;;;;;;;;;12.10;99.90;;;;;;5065666;28;19935;-92
2021/11/02 14:15:28;;;;;;;;;;;12.10;99.90;;;;;;5064368;28;19909;-91
2021/11/02 14:17:56;;;;;;;;;;;12.00;99.90;;;;;;5046233;28;20357;-91
2021/11/02 14:20:34;;;;;;;;;;;12.00;99.90;;;;;;5044929;28;19912;-93
2021/11/02 14:23:00;;;;;;;;;;;12.10;99.90;;;;;;5072066;28;19977;-90
2021/11/02 14:25:33;;;;;;;;;;;12.00;99.90;;;;;;5064961;28;20050;-91
2021/11/02 14:27:59;;;;;;;;;;;12.00;99.90;;;;;;5063284;28;20000;-91
2021/11/02 14:30:31;;;;;;;;;;;12.00;99.90;;;;;;5070171;28;19909;-91
2021/11/02 14:32:57;;;;;;;;;;;12.00;99.90;;;;;;5071690;28;19923;-92
2021/11/02 14:35:41;;;;;;;;;;;12.00;99.90;;;;;;5071528;28;19933;-91
2021/11/02 14:38:10;;;;;;;;;;;12.10;99.90;;;;;;5072037;28;20225;-94
2021/11/02 14:40:42;;;;;;;;;;;12.10;99.90;;;;;;5069926;28;20369;-92
2021/11/02 14:43:14;;;;;;;;;;;12.10;99.90;;;;;;5059142;28;20397;-91
2021/11/02 14:45:41;;;;;;;;;;;12.20;99.90;;;;;;5069255;28;20015;-91
2021/11/02 14:48:26;;;;;;;;;;;12.20;99.90;;;;;;5070218;28;20292;-90
2021/11/02 14:51:17;;;;;;;;;;;12.30;99.90;;;;;;5069609;28;19931;-92
2021/11/02 14:53:44;;;;;;;;;;;12.30;99.90;;;;;;5066846;28;19922;-90
2021/11/02 14:56:12;;;;;;;;;;;12.30;99.90;;;;;;5069904;28;19908;-90
2021/11/02 14:58:50;;;;;;;;;;;12.40;99.90;;;;;;5069728;28;19915;-90
2021/11/02 15:01:35;;;;;;;;;;;12.50;99.90;;;;;;5035984;28;19909;-93
2021/11/02 15:04:13;;;;;;;;;;;12.50;99.90;;;;;;5050720;28;20004;-92
2021/11/02 15:06:43;;;;;;;;;;;12.60;99.90;;;;;;5070939;28;20357;-89
2021/11/02 15:09:10;;;;;;;;;;;12.60;99.90;;;;;;5070532;28;19985;-92
2021/11/02 15:11:36;;;;;;;;;;;12.70;99.90;;;;;;5069472;28;20359;-91
2021/11/02 15:14:04;;;;;;;;;;;12.70;99.90;;;;;;5071184;28;19959;-90
2021/11/02 15:16:30;;;;;;;;;;;12.70;99.90;;;;;;5066216;28;19908;-90
2021/11/02 15:19:03;;;;;;;;;;;12.70;99.90;;;;;;5060028;28;19908;-91
2021/11/02 15:21:31;;;;;;;;;;;12.70;99.90;;;;;;5069263;28;19908;-89
2021/11/02 15:23:57;;;;;;;;;;;12.70;99.90;;;;;;5070839;28;19924;-90
2021/11/02 15:26:22;;;;;;;;;;;12.70;99.90;;;;;;5070470;28;19912;-90
2021/11/02 15:28:49;;;;;;;;;;;12.80;99.90;;;;;;5070499;28;19954;-89
2021/11/02 15:31:15;;;;;;;;;;;12.80;99.90;;;;;;5069206;28;19914;-89
2021/11/02 15:33:43;;;;;;;;;;;12.80;99.90;;;;;;5071139;28;19908;-90
2021/11/02 15:36:19;;;;;;;;;;;12.80;99.90;;;;;;5070390;28;19919;-90
2021/11/02 15:39:04;;;;;;;;;;;12.90;99.90;;;;;;5041014;28;19944;-89
2021/11/02 15:41:31;;;;;;;;;;;13.00;99.90;;;;;;5047971;28;19927;-90
2021/11/02 15:44:01;;;;;;;;;;;13.00;99.90;;;;;;5050354;28;19939;-90
2021/11/02 15:46:29;;;;;;;;;;;13.00;99.90;;;;;;5048962;28;19952;-90
2021/11/02 15:48:57;;;;;;;;;;;13.00;99.90;;;;;;5050248;28;19909;-89
2021/11/02 15:51:24;;;;;;;;;;;12.90;99.90;;;;;;5051524;28;19920;-90
2021/11/02 15:53:50;;;;;;;;;;;12.60;99.90;;;;;;5049024;28;20418;-90
2021/11/02 15:56:21;;;;;;;;;;;12.50;99.90;;;;;;5048403;28;20026;-89
2021/11/02 15:58:54;;;;;;;;;;;12.40;99.90;;;;;;5050356;28;19909;-91
2021/11/02 16:01:30;;;;;;;;;;;12.40;99.90;;;;;;5049930;28;20408;-92
2021/11/02 16:04:16;;;;;;;;;;;12.30;99.90;;;;;;5050247;28;19917;-90
2021/11/02 16:06:58;;;;;;;;;;;12.30;99.90;;;;;;5049461;28;20316;-90
2021/11/02 16:09:25;;;;;;;;;;;12.30;99.90;;;;;;5048974;28;19909;-92
2021/11/02 16:11:50;;;;;;;;;;;12.30;99.90;;;;;;5050056;28;19986;-90
2021/11/02 16:14:17;;;;;;;;;;;12.40;99.90;;;;;;5050232;28;20425;-89
2021/11/02 16:16:47;;;;;;;;;;;12.30;99.90;;;;;;5049799;28;19909;-90
2021/11/02 16:19:12;;;;;;;;;;;12.40;99.90;;;;;;5048585;28;19916;-90
2021/11/02 16:21:38;;;;;;;;;;;12.40;99.90;;;;;;5048411;28;20284;-90
2021/11/02 16:24:11;;;;;;;;;;;12.30;99.90;;;;;;5050129;28;19986;-90
2021/11/02 16:26:39;;;;;;;;;;;12.30;99.90;;;;;;5050789;28;19916;-88
2021/11/02 16:29:15;;;;;;;;;;;12.20;99.90;;;;;;5049921;28;19955;-89
2021/11/02 16:31:41;;;;;;;;;;;12.20;99.90;;;;;;5049915;28;20463;-90
2021/11/02 16:34:17;;;;;;;;;;;12.20;99.90;;;;;;5049784;28;19916;-93
2021/11/02 16:36:42;;;;;;;;;;;12.20;99.90;;;;;;5048379;28;19924;-89
2021/11/02 16:39:14;;;;;;;;;;;12.20;99.90;;;;;;5049425;28;19928;-89
2021/11/02 16:41:43;;;;;;;;;;;12.30;99.90;;;;;;5049406;28;19928;-91
2021/11/02 16:44:10;;;;;;;;;;;12.30;99.90;;;;;;5049739;28;20110;-89
2021/11/02 16:46:51;;;;;;;;;;;12.40;99.90;;;;;;5049780;28;19935;-90
2021/11/02 16:49:19;;;;;;;;;;;12.40;99.90;;;;;;5048811;28;19999;-89
2021/11/02 16:51:52;;;;;;;;;;;12.40;99.90;;;;;;5049736;28;19909;-89
2021/11/02 16:54:19;;;;;;;;;;;12.40;99.90;;;;;;5031398;28;19916;-89
2021/11/02 16:56:54;;;;;;;;;;;12.50;99.90;;;;;;5049387;28;20365;-89
2021/11/02 16:59:40;;;;;;;;;;;12.50;99.90;;;;;;5031422;28;19988;-90
2021/11/02 17:02:13;;;;;;;;;;;12.50;99.90;;;;;;5026451;28;19921;-89
2021/11/02 17:04:38;;;;;;;;;;;12.50;99.90;;;;;;5053177;28;20258;-89
2021/11/02 17:07:12;;;;;;;;;;;12.40;99.90;;;;;;5053529;28;19916;-89
2021/11/02 17:09:39;;;;;;;;;;;12.30;99.90;;;;;;5052826;28;20004;-89
2021/11/02 17:12:09;;;;;;;;;;;12.30;99.90;;;;;;5053236;28;19909;-89
2021/11/02 17:14:41;;;;;;;;;;;12.30;99.90;;;;;;5052803;28;19909;-89
2021/11/02 17:17:07;;;;;;;;;;;12.30;99.90;;;;;;5034737;28;19909;-88
2021/11/02 17:19:41;;;;;;;;;;;12.30;99.90;;;;;;5053335;28;19982;-90
2021/11/02 17:22:07;;;;;;;;;;;12.30;99.90;;;;;;5034857;28;20435;-89
2021/11/02 17:24:33;;;;;;;;;;;12.30;99.90;;;;;;5052890;28;19912;-92
2021/11/02 17:26:58;;;;;;;;;;;12.30;99.90;;;;;;5034547;28;19909;-89
2021/11/02 17:29:25;;;;;;;;;;;12.30;99.90;;;;;;5053089;28;20280;-91
2021/11/02 17:31:52;;;;;;;;;;;12.30;99.90;;;;;;5052317;28;19909;-89
2021/11/02 17:34:22;;;;;;;;;;;12.30;99.90;;;;;;5035049;28;20289;-90
2021/11/02 17:36:52;;;;;;;;;;;12.30;99.90;;;;;;5052958;28;20024;-89
2021/11/02 17:39:19;;;;;;;;;;;12.40;99.90;;;;;;5034788;28;20160;-90
2021/11/02 17:41:45;;;;;;;;;;;12.40;99.90;;;;;;5052697;28;19921;-90
2021/11/02 17:44:12;;;;;;;;;;;12.40;99.90;;;;;;5052731;28;19909;-90
2021/11/02 17:46:38;;;;;;;;;;;12.30;99.90;;;;;;5052497;28;19963;-84
2021/11/02 17:49:03;;;;;;;;;;;12.40;99.90;;;;;;5051977;28;19915;-84
2021/11/02 17:51:29;;;;;;;;;;;12.40;99.90;;;;;;5052332;28;19909;-84
2021/11/02 17:53:55;;;;;;;;;;;12.50;99.90;;;;;;5052277;28;20374;-84
2021/11/02 17:56:20;;;;;;;;;;;12.50;99.90;;;;;;5052246;28;19909;-85
2021/11/02 17:58:46;;;;;;;;;;;12.50;99.90;;;;;;5051508;28;19909;-84
2021/11/02 18:01:15;;;;;;;;;;;12.40;99.90;;;;;;5051722;28;20401;-84
2021/11/02 18:03:42;;;;;;;;;;;12.30;99.90;;;;;;5034139;28;20021;-84
2021/11/02 18:06:09;;;;;;;;;;;12.30;99.90;;;;;;5052076;28;20258;-85
2021/11/02 18:08:35;;;;;;;;;;;12.20;99.90;;;;;;5051866;28;20046;-86
2021/11/02 18:11:01;;;;;;;;;;;12.10;99.90;;;;;;5033582;28;19995;-87
2021/11/02 18:13:28;;;;;;;;;;;12.00;99.90;;;;;;5051326;28;19909;-91
2021/11/02 18:15:54;;;;;;;;;;;11.90;99.90;;;;;;5051457;28;19909;-84
2021/11/02 18:18:21;;;;;;;;;;;11.90;99.90;;;;;;5052081;28;19915;-85
2021/11/02 18:20:46;;;;;;;;;;;11.80;99.90;;;;;;5033459;28;20522;-83
2021/11/02 18:23:13;;;;;;;;;;;11.80;99.90;;;;;;5051553;28;20019;-85
2021/11/02 18:25:39;;;;;;;;;;;11.70;99.90;;;;;;5051629;28;20373;-86
2021/11/02 18:28:04;;;;;;;;;;;11.70;99.90;;;;;;5050695;28;19924;-86
2021/11/02 18:30:32;;;;;;;;;;;11.70;99.90;;;;;;5057869;28;19948;-88
2021/11/02 18:32:58;;;;;;;;;;;11.70;99.90;;;;;;5053401;28;19947;-88
2021/11/02 18:35:24;;;;;;;;;;;11.80;99.90;;;;;;5069104;28;19954;-89
2021/11/02 18:37:50;;;;;;;;;;;11.80;99.90;;;;;;5051341;28;19913;-87
2021/11/02 18:40:19;;;;;;;;;;;11.80;99.90;;;;;;5051468;28;20004;-89
2021/11/02 18:42:46;;;;;;;;;;;11.80;99.90;;;;;;5033657;28;20015;-88
2021/11/02 18:45:12;;;;;;;;;;;11.80;99.90;;;;;;5033059;28;19963;-88
2021/11/02 18:47:38;;;;;;;;;;;11.80;99.90;;;;;;5051275;28;20468;-89
2021/11/02 18:50:04;;;;;;;;;;;11.90;99.90;;;;;;5051297;28;19996;-91
2021/11/02 18:52:29;;;;;;;;;;;11.90;99.90;;;;;;5051445;28;19944;-89
2021/11/02 18:54:55;;;;;;;;;;;11.90;99.90;;;;;;5051299;28;19916;-89
2021/11/02 18:57:20;;;;;;;;;;;11.90;99.90;;;;;;5051314;28;20354;-88
2021/11/02 18:59:46;;;;;;;;;;;11.90;99.90;;;;;;5051459;28;19909;-89
2021/11/02 19:02:11;;;;;;;;;;;12.00;99.90;;;;;;5033054;28;19920;-88
2021/11/02 19:04:37;;;;;;;;;;;11.90;99.90;;;;;;5050893;28;19909;-87
2021/11/02 19:07:03;;;;;;;;;;;11.90;99.90;;;;;;5050965;28;19916;-85
2021/11/02 19:09:29;;;;;;;;;;;11.90;99.90;;;;;;5050741;28;19909;-85
2021/11/02 19:11:54;;;;;;;;;;;11.90;99.90;;;;;;5050782;28;19916;-87
2021/11/02 19:14:20;;;;;;;;;;;11.80;99.90;;;;;;5033066;28;19991;-87
2021/11/02 19:16:46;;;;;;;;;;;11.70;99.90;;;;;;5050490;28;19909;-89